sensor_id;sensor_type;location;lat;lon;timestamp;pressure;altitude;pressure_sealevel;temperature;humidity
80644;BME280;70010;60.224;24.712;2023-09-18T00:01:23;102123.28;;;5.63;57.59
80644;BME280;70010;60.224;24.712;2023-09-18T00:03:48;102120.66;;;4.97;58.98
80644;BME280;70010;60.224;24.712;2023-09-18T00:06:14;102118.27;;;4.12;61.10
80644;BME280;70010;60.224;24.712;2023-09-18T00:08:39;102121.66;;;3.70;63.66
80644;BME280;70010;60.224;24.712;2023-09-18T00:11:05;102125.22;;;3.26;64.91
80644;BME280;70010;60.224;24.712;2023-09-18T00:13:30;102124.03;;;3.79;63.13
80644;BME280;70010;60.224;24.712;2023-09-18T00:15:55;102120.59;;;3.93;62.04
80644;BME280;70010;60.224;24.712;2023-09-18T00:18:20;102118.99;;;3.61;62.63
80644;BME280;70010;60.224;24.712;2023-09-18T00:20:46;102126.21;;;3.65;63.69
80644;BME280;70010;60.224;24.712;2023-09-18T00:23:11;102129.34;;;3.68;63.64
80644;BME280;70010;60.224;24.712;2023-09-18T00:25:36;102129.84;;;3.56;63.76
80644;BME280;70010;60.224;24.712;2023-09-18T00:28:02;102123.35;;;3.81;64.33
80644;BME280;70010;60.224;24.712;2023-09-18T00:30:27;102119.95;;;3.17;64.59
80644;BME280;70010;60.224;24.712;2023-09-18T00:32:52;102120.12;;;3.79;64.25
80644;BME280;70010;60.224;24.712;2023-09-18T00:35:18;102119.04;;;3.02;65.36
80644;BME280;70010;60.224;24.712;2023-09-18T00:37:43;102117.09;;;3.02;65.48
80644;BME280;70010;60.224;24.712;2023-09-18T00:40:09;102117.14;;;2.97;65.93
80644;BME280;70010;60.224;24.712;2023-09-18T00:42:33;102122.17;;;2.78;66.48
80644;BME280;70010;60.224;24.712;2023-09-18T00:44:59;102121.52;;;3.02;65.23
80644;BME280;70010;60.224;24.712;2023-09-18T00:47:24;102123.79;;;3.53;64.34
80644;BME280;70010;60.224;24.712;2023-09-18T00:49:50;102127.40;;;3.08;65.31
80644;BME280;70010;60.224;24.712;2023-09-18T00:52:15;102126.58;;;3.16;65.42
80644;BME280;70010;60.224;24.712;2023-09-18T00:54:40;102130.93;;;3.10;64.97
80644;BME280;70010;60.224;24.712;2023-09-18T00:57:06;102131.84;;;3.11;64.89
80644;BME280;70010;60.224;24.712;2023-09-18T00:59:31;102134.14;;;2.99;65.01
80644;BME280;70010;60.224;24.712;2023-09-18T01:01:56;102136.99;;;3.77;62.98
80644;BME280;70010;60.224;24.712;2023-09-18T01:04:23;102139.14;;;3.26;64.39
80644;BME280;70010;60.224;24.712;2023-09-18T01:06:47;102128.91;;;6.83;55.42
80644;BME280;70010;60.224;24.712;2023-09-18T01:09:12;102136.25;;;3.42;62.90
80644;BME280;70010;60.224;24.712;2023-09-18T01:11:45;102139.44;;;3.15;65.05
80644;BME280;70010;60.224;24.712;2023-09-18T01:14:09;102143.15;;;2.87;65.66
80644;BME280;70010;60.224;24.712;2023-09-18T01:16:34;102144.37;;;2.65;65.98
80644;BME280;70010;60.224;24.712;2023-09-18T01:18:54;102143.82;;;3.14;64.25
80644;BME280;70010;60.224;24.712;2023-09-18T01:21:19;102143.21;;;2.59;65.48
80644;BME280;70010;60.224;24.712;2023-09-18T01:23:44;102141.45;;;2.97;64.22
80644;BME280;70010;60.224;24.712;2023-09-18T01:26:10;102145.60;;;3.21;63.22
80644;BME280;70010;60.224;24.712;2023-09-18T01:28:35;102149.40;;;3.35;62.73
80644;BME280;70010;60.224;24.712;2023-09-18T01:31:00;102149.92;;;2.34;65.76
80644;BME280;70010;60.224;24.712;2023-09-18T01:33:27;102152.37;;;2.55;66.25
80644;BME280;70010;60.224;24.712;2023-09-18T01:35:52;102158.55;;;2.39;66.57
80644;BME280;70010;60.224;24.712;2023-09-18T01:38:17;102160.17;;;2.68;64.55
80644;BME280;70010;60.224;24.712;2023-09-18T01:40:42;102156.12;;;2.43;65.41
80644;BME280;70010;60.224;24.712;2023-09-18T01:43:07;102163.28;;;2.39;66.25
80644;BME280;70010;60.224;24.712;2023-09-18T01:45:33;102160.53;;;2.26;66.62
80644;BME280;70010;60.224;24.712;2023-09-18T01:47:58;102158.54;;;2.53;65.21
80644;BME280;70010;60.224;24.712;2023-09-18T01:50:23;102159.19;;;2.98;64.12
80644;BME280;70010;60.224;24.712;2023-09-18T01:52:49;102157.23;;;2.73;65.54
80644;BME280;70010;60.224;24.712;2023-09-18T01:55:14;102162.80;;;2.22;65.70
80644;BME280;70010;60.224;24.712;2023-09-18T01:57:40;102158.01;;;2.08;65.02
80644;BME280;70010;60.224;24.712;2023-09-18T02:00:06;102159.42;;;2.90;63.05
80644;BME280;70010;60.224;24.712;2023-09-18T02:02:30;102157.71;;;2.43;64.69
80644;BME280;70010;60.224;24.712;2023-09-18T02:04:55;102167.32;;;2.23;65.53
80644;BME280;70010;60.224;24.712;2023-09-18T02:07:20;102169.85;;;3.22;62.05
80644;BME280;70010;60.224;24.712;2023-09-18T02:09:46;102170.39;;;2.71;62.53
80644;BME280;70010;60.224;24.712;2023-09-18T02:12:11;102174.05;;;3.22;62.73
80644;BME280;70010;60.224;24.712;2023-09-18T02:14:36;102170.48;;;2.69;63.69
80644;BME280;70010;60.224;24.712;2023-09-18T02:17:02;102167.89;;;2.13;66.45
80644;BME280;70010;60.224;24.712;2023-09-18T02:19:27;102166.26;;;1.58;66.39
80644;BME280;70010;60.224;24.712;2023-09-18T02:21:54;102170.07;;;3.24;63.21
80644;BME280;70010;60.224;24.712;2023-09-18T02:24:18;102157.22;;;4.84;57.36
80644;BME280;70010;60.224;24.712;2023-09-18T02:26:43;102162.12;;;1.66;65.71
80644;BME280;70010;60.224;24.712;2023-09-18T02:29:09;102162.82;;;2.27;64.38
80644;BME280;70010;60.224;24.712;2023-09-18T02:31:34;102164.91;;;2.35;64.11
80644;BME280;70010;60.224;24.712;2023-09-18T02:33:59;102163.42;;;1.88;64.85
80644;BME280;70010;60.224;24.712;2023-09-18T02:36:25;102162.06;;;1.73;65.17
80644;BME280;70010;60.224;24.712;2023-09-18T02:38:50;102164.34;;;1.96;65.88
80644;BME280;70010;60.224;24.712;2023-09-18T02:41:15;102159.71;;;2.10;64.42
80644;BME280;70010;60.224;24.712;2023-09-18T02:43:41;102157.63;;;3.10;61.57
80644;BME280;70010;60.224;24.712;2023-09-18T02:46:07;102162.34;;;1.72;64.74
80644;BME280;70010;60.224;24.712;2023-09-18T02:48:31;102166.20;;;1.50;66.51
80644;BME280;70010;60.224;24.712;2023-09-18T02:50:57;102167.51;;;2.14;65.19
80644;BME280;70010;60.224;24.712;2023-09-18T02:53:23;102164.88;;;1.85;65.43
80644;BME280;70010;60.224;24.712;2023-09-18T02:55:48;102157.58;;;2.08;63.70
80644;BME280;70010;60.224;24.712;2023-09-18T02:58:12;102161.14;;;1.50;65.31
80644;BME280;70010;60.224;24.712;2023-09-18T03:00:41;102155.21;;;1.87;66.29
80644;BME280;70010;60.224;24.712;2023-09-18T03:03:03;102150.26;;;2.10;64.70
80644;BME280;70010;60.224;24.712;2023-09-18T03:05:31;102145.88;;;1.67;64.11
80644;BME280;70010;60.224;24.712;2023-09-18T03:07:54;102147.19;;;1.71;64.53
80644;BME280;70010;60.224;24.712;2023-09-18T03:10:20;102151.87;;;1.56;65.35
80644;BME280;70010;60.224;24.712;2023-09-18T03:12:48;102153.24;;;1.56;65.50
80644;BME280;70010;60.224;24.712;2023-09-18T03:15:10;102149.76;;;1.56;65.06
80644;BME280;70010;60.224;24.712;2023-09-18T03:17:36;102152.48;;;1.23;64.70
80644;BME280;70010;60.224;24.712;2023-09-18T03:20:01;102148.37;;;1.70;65.98
80644;BME280;70010;60.224;24.712;2023-09-18T03:22:26;102144.32;;;1.35;66.52
80644;BME280;70010;60.224;24.712;2023-09-18T03:24:52;102147.73;;;1.12;66.53
80644;BME280;70010;60.224;24.712;2023-09-18T03:27:17;102146.57;;;1.29;66.28
80644;BME280;70010;60.224;24.712;2023-09-18T03:29:42;102147.66;;;1.15;67.18
80644;BME280;70010;60.224;24.712;2023-09-18T03:32:08;102148.19;;;1.35;66.14
80644;BME280;70010;60.224;24.712;2023-09-18T03:34:33;102146.68;;;1.30;65.72
80644;BME280;70010;60.224;24.712;2023-09-18T03:36:59;102144.97;;;1.12;66.55
80644;BME280;70010;60.224;24.712;2023-09-18T03:39:24;102149.52;;;1.49;65.25
80644;BME280;70010;60.224;24.712;2023-09-18T03:41:49;102146.75;;;0.85;66.74
80644;BME280;70010;60.224;24.712;2023-09-18T03:44:14;102145.58;;;1.13;67.14
80644;BME280;70010;60.224;24.712;2023-09-18T03:46:40;102142.53;;;1.12;66.74
80644;BME280;70010;60.224;24.712;2023-09-18T03:49:05;102142.73;;;1.15;66.17
80644;BME280;70010;60.224;24.712;2023-09-18T03:51:30;102141.12;;;1.19;66.58
80644;BME280;70010;60.224;24.712;2023-09-18T03:53:56;102142.72;;;0.97;67.15
80644;BME280;70010;60.224;24.712;2023-09-18T03:56:21;102143.33;;;1.07;66.20
80644;BME280;70010;60.224;24.712;2023-09-18T03:58:46;102147.17;;;1.30;65.76
80644;BME280;70010;60.224;24.712;2023-09-18T04:01:12;102146.07;;;1.18;65.98
80644;BME280;70010;60.224;24.712;2023-09-18T04:03:37;102144.79;;;0.91;67.31
80644;BME280;70010;60.224;24.712;2023-09-18T04:06:03;102140.89;;;1.17;66.64
80644;BME280;70010;60.224;24.712;2023-09-18T04:08:28;102142.90;;;0.83;67.67
80644;BME280;70010;60.224;24.712;2023-09-18T04:10:54;102136.82;;;0.95;66.62
80644;BME280;70010;60.224;24.712;2023-09-18T04:13:19;102136.58;;;0.99;66.67
80644;BME280;70010;60.224;24.712;2023-09-18T04:15:44;102132.53;;;1.02;66.94
80644;BME280;70010;60.224;24.712;2023-09-18T04:18:09;102135.80;;;1.11;66.63
80644;BME280;70010;60.224;24.712;2023-09-18T04:20:35;102143.99;;;0.75;66.67
80644;BME280;70010;60.224;24.712;2023-09-18T04:25:25;102144.27;;;1.06;66.52
80644;BME280;70010;60.224;24.712;2023-09-18T04:27:51;102148.13;;;1.50;64.59
80644;BME280;70010;60.224;24.712;2023-09-18T04:30:16;102152.06;;;1.29;65.28
80644;BME280;70010;60.224;24.712;2023-09-18T04:32:41;102150.79;;;1.56;64.71
80644;BME280;70010;60.224;24.712;2023-09-18T04:35:07;102152.34;;;1.15;65.48
80644;BME280;70010;60.224;24.712;2023-09-18T04:37:36;102152.44;;;1.12;65.77
80644;BME280;70010;60.224;24.712;2023-09-18T04:39:58;102151.78;;;1.23;65.46
80644;BME280;70010;60.224;24.712;2023-09-18T04:42:23;102151.27;;;1.38;65.61
80644;BME280;70010;60.224;24.712;2023-09-18T04:44:48;102149.78;;;1.32;66.36
80644;BME280;70010;60.224;24.712;2023-09-18T04:47:13;102151.06;;;1.49;64.92
80644;BME280;70010;60.224;24.712;2023-09-18T04:49:39;102154.08;;;1.21;65.49
80644;BME280;70010;60.224;24.712;2023-09-18T04:52:04;102160.39;;;1.08;65.95
80644;BME280;70010;60.224;24.712;2023-09-18T04:54:30;102164.67;;;1.39;65.48
80644;BME280;70010;60.224;24.712;2023-09-18T04:56:55;102166.39;;;1.34;65.69
80644;BME280;70010;60.224;24.712;2023-09-18T04:59:20;102159.73;;;1.73;64.35
80644;BME280;70010;60.224;24.712;2023-09-18T05:01:46;102156.90;;;2.31;63.18
80644;BME280;70010;60.224;24.712;2023-09-18T05:04:11;102157.93;;;1.65;64.07
80644;BME280;70010;60.224;24.712;2023-09-18T05:06:36;102161.53;;;1.36;64.87
80644;BME280;70010;60.224;24.712;2023-09-18T05:09:02;102167.71;;;1.85;65.10
80644;BME280;70010;60.224;24.712;2023-09-18T05:11:27;102167.33;;;1.74;64.48
80644;BME280;70010;60.224;24.712;2023-09-18T05:13:52;102165.56;;;2.39;64.16
80644;BME280;70010;60.224;24.712;2023-09-18T05:16:18;102169.38;;;1.91;64.06
80644;BME280;70010;60.224;24.712;2023-09-18T05:18:43;102167.42;;;2.14;64.88
80644;BME280;70010;60.224;24.712;2023-09-18T05:21:09;102169.89;;;2.18;64.99
80644;BME280;70010;60.224;24.712;2023-09-18T05:23:34;102165.37;;;2.48;64.19
80644;BME280;70010;60.224;24.712;2023-09-18T05:25:59;102168.38;;;2.31;64.08
80644;BME280;70010;60.224;24.712;2023-09-18T05:28:24;102172.22;;;2.70;63.72
80644;BME280;70010;60.224;24.712;2023-09-18T05:30:50;102168.89;;;3.40;62.50
80644;BME280;70010;60.224;24.712;2023-09-18T05:33:15;102168.23;;;3.11;63.22
80644;BME280;70010;60.224;24.712;2023-09-18T05:35:41;102171.81;;;2.71;63.50
80644;BME280;70010;60.224;24.712;2023-09-18T05:38:07;102173.93;;;3.63;61.20
80644;BME280;70010;60.224;24.712;2023-09-18T05:40:32;102176.08;;;3.67;62.52
80644;BME280;70010;60.224;24.712;2023-09-18T05:42:57;102179.59;;;3.07;63.03
80644;BME280;70010;60.224;24.712;2023-09-18T05:45:22;102180.59;;;3.71;61.69
80644;BME280;70010;60.224;24.712;2023-09-18T05:47:48;102179.50;;;3.76;61.62
80644;BME280;70010;60.224;24.712;2023-09-18T05:50:13;102184.91;;;3.75;62.32
80644;BME280;70010;60.224;24.712;2023-09-18T05:52:38;102191.65;;;3.37;63.58
80644;BME280;70010;60.224;24.712;2023-09-18T05:55:04;102194.35;;;3.21;63.57
80644;BME280;70010;60.224;24.712;2023-09-18T05:57:29;102195.04;;;3.82;62.42
80644;BME280;70010;60.224;24.712;2023-09-18T05:59:54;102190.52;;;7.73;52.26
80644;BME280;70010;60.224;24.712;2023-09-18T06:02:19;102188.05;;;7.12;53.89
80644;BME280;70010;60.224;24.712;2023-09-18T06:04:45;102191.04;;;6.03;55.23
80644;BME280;70010;60.224;24.712;2023-09-18T06:07:10;102192.15;;;8.82;49.75
80644;BME280;70010;60.224;24.712;2023-09-18T06:09:35;102192.19;;;8.90;49.76
80644;BME280;70010;60.224;24.712;2023-09-18T06:12:00;102189.47;;;9.20;49.25
80644;BME280;70010;60.224;24.712;2023-09-18T06:14:26;102189.61;;;9.00;49.55
80644;BME280;70010;60.224;24.712;2023-09-18T06:16:51;102190.68;;;10.13;47.36
80644;BME280;70010;60.224;24.712;2023-09-18T06:19:16;102188.64;;;10.36;46.51
80644;BME280;70010;60.224;24.712;2023-09-18T06:21:41;102188.72;;;10.69;45.93
80644;BME280;70010;60.224;24.712;2023-09-18T06:24:07;102191.67;;;10.28;46.70
80644;BME280;70010;60.224;24.712;2023-09-18T06:26:32;102191.27;;;9.89;47.58
80644;BME280;70010;60.224;24.712;2023-09-18T06:28:57;102187.62;;;10.39;46.82
80644;BME280;70010;60.224;24.712;2023-09-18T06:31:22;102181.57;;;10.82;45.77
80644;BME280;70010;60.224;24.712;2023-09-18T06:33:48;102186.46;;;10.70;46.05
80644;BME280;70010;60.224;24.712;2023-09-18T06:36:13;102187.87;;;10.32;46.75
80644;BME280;70010;60.224;24.712;2023-09-18T06:38:38;102184.57;;;10.60;45.99
80644;BME280;70010;60.224;24.712;2023-09-18T06:41:03;102181.85;;;10.46;46.90
80644;BME280;70010;60.224;24.712;2023-09-18T06:43:29;102176.14;;;11.60;45.33
80644;BME280;70010;60.224;24.712;2023-09-18T06:45:54;102170.48;;;12.10;44.39
80644;BME280;70010;60.224;24.712;2023-09-18T06:48:19;102168.54;;;11.06;45.59
80644;BME280;70010;60.224;24.712;2023-09-18T06:50:44;102171.83;;;8.16;50.81
80644;BME280;70010;60.224;24.712;2023-09-18T06:53:10;102169.49;;;10.34;47.26
80644;BME280;70010;60.224;24.712;2023-09-18T06:55:35;102163.13;;;11.46;45.02
80644;BME280;70010;60.224;24.712;2023-09-18T06:58:00;102169.05;;;10.82;46.00
80644;BME280;70010;60.224;24.712;2023-09-18T07:00:25;102163.58;;;11.46;45.25
80644;BME280;70010;60.224;24.712;2023-09-18T07:02:51;102170.06;;;11.91;44.58
80644;BME280;70010;60.224;24.712;2023-09-18T07:05:16;102168.96;;;11.26;45.55
80644;BME280;70010;60.224;24.712;2023-09-18T07:07:41;102173.68;;;9.28;49.53
80644;BME280;70010;60.224;24.712;2023-09-18T07:10:07;102171.68;;;8.11;52.47
80644;BME280;70010;60.224;24.712;2023-09-18T07:12:32;102167.42;;;11.20;46.34
80644;BME280;70010;60.224;24.712;2023-09-18T07:14:59;102168.92;;;11.91;44.91
80644;BME280;70010;60.224;24.712;2023-09-18T07:17:22;102168.83;;;10.97;45.83
80644;BME280;70010;60.224;24.712;2023-09-18T07:19:47;102171.78;;;11.30;46.26
80644;BME280;70010;60.224;24.712;2023-09-18T07:22:13;102175.15;;;9.27;49.58
80644;BME280;70010;60.224;24.712;2023-09-18T07:24:38;102175.26;;;10.37;48.02
80644;BME280;70010;60.224;24.712;2023-09-18T07:27:04;102172.97;;;11.83;44.85
80644;BME280;70010;60.224;24.712;2023-09-18T07:29:28;102173.65;;;11.63;45.19
80644;BME280;70010;60.224;24.712;2023-09-18T07:31:54;102175.44;;;13.01;42.82
80644;BME280;70010;60.224;24.712;2023-09-18T07:34:19;102172.56;;;11.93;44.03
80644;BME280;70010;60.224;24.712;2023-09-18T07:36:45;102172.31;;;12.64;42.50
80644;BME280;70010;60.224;24.712;2023-09-18T07:39:11;102170.92;;;12.60;42.46
80644;BME280;70010;60.224;24.712;2023-09-18T07:41:35;102170.72;;;10.41;45.30
80644;BME280;70010;60.224;24.712;2023-09-18T07:44:00;102175.04;;;12.51;42.17
80644;BME280;70010;60.224;24.712;2023-09-18T07:46:26;102176.79;;;11.01;44.13
80644;BME280;70010;60.224;24.712;2023-09-18T07:48:51;102179.24;;;9.59;46.27
80644;BME280;70010;60.224;24.712;2023-09-18T07:51:16;102170.35;;;9.57;45.46
80644;BME280;70010;60.224;24.712;2023-09-18T07:53:42;102168.78;;;8.88;45.97
80644;BME280;70010;60.224;24.712;2023-09-18T07:56:06;102164.30;;;12.95;39.29
80644;BME280;70010;60.224;24.712;2023-09-18T07:58:32;102172.26;;;10.43;40.49
80644;BME280;70010;60.224;24.712;2023-09-18T08:00:57;102168.33;;;12.81;36.93
80644;BME280;70010;60.224;24.712;2023-09-18T08:03:22;102176.96;;;11.00;39.40
80644;BME280;70010;60.224;24.712;2023-09-18T08:05:49;102170.41;;;11.88;38.66
80644;BME280;70010;60.224;24.712;2023-09-18T08:08:12;102165.47;;;11.89;37.49
80644;BME280;70010;60.224;24.712;2023-09-18T08:10:37;102158.80;;;11.66;37.77
80644;BME280;70010;60.224;24.712;2023-09-18T08:13:03;102154.28;;;12.37;36.72
80644;BME280;70010;60.224;24.712;2023-09-18T08:15:28;102152.59;;;13.42;35.21
80644;BME280;70010;60.224;24.712;2023-09-18T08:17:53;102150.08;;;12.61;36.23
80644;BME280;70010;60.224;24.712;2023-09-18T08:20:18;102144.58;;;13.10;35.05
80644;BME280;70010;60.224;24.712;2023-09-18T08:22:44;102144.52;;;12.78;35.84
80644;BME280;70010;60.224;24.712;2023-09-18T08:25:09;102141.75;;;13.41;34.43
80644;BME280;70010;60.224;24.712;2023-09-18T08:27:34;102139.40;;;13.80;34.67
80644;BME280;70010;60.224;24.712;2023-09-18T08:29:59;102136.79;;;13.26;36.17
80644;BME280;70010;60.224;24.712;2023-09-18T08:32:24;102134.93;;;13.57;35.42
80644;BME280;70010;60.224;24.712;2023-09-18T08:34:49;102138.18;;;16.02;32.57
80644;BME280;70010;60.224;24.712;2023-09-18T08:37:15;102141.32;;;14.22;33.47
80644;BME280;70010;60.224;24.712;2023-09-18T08:39:40;102144.62;;;14.35;33.67
80644;BME280;70010;60.224;24.712;2023-09-18T08:42:07;102149.29;;;13.98;34.78
80644;BME280;70010;60.224;24.712;2023-09-18T08:44:31;102144.91;;;14.43;33.30
80644;BME280;70010;60.224;24.712;2023-09-18T08:46:56;102136.01;;;13.82;34.82
80644;BME280;70010;60.224;24.712;2023-09-18T08:49:21;102134.04;;;13.09;36.41
80644;BME280;70010;60.224;24.712;2023-09-18T08:51:46;102136.32;;;12.39;38.19
80644;BME280;70010;60.224;24.712;2023-09-18T08:54:11;102142.44;;;12.15;39.51
80644;BME280;70010;60.224;24.712;2023-09-18T08:56:36;102133.17;;;13.23;36.30
80644;BME280;70010;60.224;24.712;2023-09-18T08:59:01;102135.34;;;12.53;38.08
80644;BME280;70010;60.224;24.712;2023-09-18T09:01:26;102124.33;;;12.33;38.60
80644;BME280;70010;60.224;24.712;2023-09-18T09:03:52;102108.52;;;13.57;36.76
80644;BME280;70010;60.224;24.712;2023-09-18T09:06:17;102106.98;;;13.62;36.08
80644;BME280;70010;60.224;24.712;2023-09-18T09:08:42;102107.07;;;13.97;35.44
80644;BME280;70010;60.224;24.712;2023-09-18T09:11:07;102104.77;;;14.21;34.54
80644;BME280;70010;60.224;24.712;2023-09-18T09:13:32;102101.84;;;14.22;34.26
80644;BME280;70010;60.224;24.712;2023-09-18T09:15:59;102098.40;;;14.11;34.94
80644;BME280;70010;60.224;24.712;2023-09-18T09:18:24;102097.82;;;14.17;34.92
80644;BME280;70010;60.224;24.712;2023-09-18T09:20:53;102097.26;;;14.64;34.30
80644;BME280;70010;60.224;24.712;2023-09-18T09:23:13;102095.78;;;14.66;33.51
80644;BME280;70010;60.224;24.712;2023-09-18T09:25:38;102091.57;;;14.58;34.78
80644;BME280;70010;60.224;24.712;2023-09-18T09:28:05;102086.23;;;14.09;34.23
80644;BME280;70010;60.224;24.712;2023-09-18T09:30:29;102073.61;;;14.90;33.12
80644;BME280;70010;60.224;24.712;2023-09-18T09:32:55;102068.60;;;15.38;32.19
80644;BME280;70010;60.224;24.712;2023-09-18T09:35:21;102067.78;;;13.88;33.82
80644;BME280;70010;60.224;24.712;2023-09-18T09:37:44;102064.17;;;15.78;31.51
80644;BME280;70010;60.224;24.712;2023-09-18T09:40:12;102065.36;;;15.77;31.54
80644;BME280;70010;60.224;24.712;2023-09-18T09:42:39;102060.64;;;16.46;30.81
80644;BME280;70010;60.224;24.712;2023-09-18T09:45:02;102054.65;;;14.38;33.65
80644;BME280;70010;60.224;24.712;2023-09-18T09:47:25;102047.07;;;14.92;33.22
80644;BME280;70010;60.224;24.712;2023-09-18T09:49:50;102045.13;;;15.01;33.72
80644;BME280;70010;60.224;24.712;2023-09-18T09:52:18;102043.19;;;16.82;31.45
80644;BME280;70010;60.224;24.712;2023-09-18T09:54:41;102040.44;;;14.88;33.19
80644;BME280;70010;60.224;24.712;2023-09-18T09:57:06;102039.58;;;15.73;32.02
80644;BME280;70010;60.224;24.712;2023-09-18T09:59:31;102036.44;;;16.19;32.09
80644;BME280;70010;60.224;24.712;2023-09-18T10:01:57;102035.24;;;15.95;31.74
80644;BME280;70010;60.224;24.712;2023-09-18T10:04:22;102035.95;;;15.75;31.13
80644;BME280;70010;60.224;24.712;2023-09-18T10:06:51;102038.80;;;16.18;31.02
80644;BME280;70010;60.224;24.712;2023-09-18T10:09:14;102037.87;;;15.88;30.71
80644;BME280;70010;60.224;24.712;2023-09-18T10:11:41;102029.42;;;16.02;31.50
80644;BME280;70010;60.224;24.712;2023-09-18T10:14:07;102022.97;;;17.79;29.49
80644;BME280;70010;60.224;24.712;2023-09-18T10:16:30;102023.80;;;18.15;28.67
80644;BME280;70010;60.224;24.712;2023-09-18T10:21:24;102012.17;;;19.04;28.23
80644;BME280;70010;60.224;24.712;2023-09-18T10:23:59;102001.86;;;25.94;22.50
80644;BME280;70010;60.224;24.712;2023-09-18T10:26:09;102003.20;;;24.47;22.31
80644;BME280;70010;60.224;24.712;2023-09-18T10:28:34;102002.27;;;24.46;21.80
80644;BME280;70010;60.224;24.712;2023-09-18T10:30:59;102000.34;;;23.77;22.52
80644;BME280;70010;60.224;24.712;2023-09-18T10:33:24;101993.41;;;28.60;18.61
80644;BME280;70010;60.224;24.712;2023-09-18T10:35:49;101998.44;;;25.74;19.81
80644;BME280;70010;60.224;24.712;2023-09-18T10:38:15;102001.65;;;25.71;19.81
80644;BME280;70010;60.224;24.712;2023-09-18T10:40:40;101990.82;;;29.79;16.66
80644;BME280;70010;60.224;24.712;2023-09-18T10:43:04;101991.94;;;25.24;19.18
80644;BME280;70010;60.224;24.712;2023-09-18T10:45:30;101984.83;;;28.75;17.22
80644;BME280;70010;60.224;24.712;2023-09-18T10:47:55;101982.77;;;27.36;18.33
80644;BME280;70010;60.224;24.712;2023-09-18T10:50:24;101989.63;;;25.37;19.70
80644;BME280;70010;60.224;24.712;2023-09-18T10:52:46;101983.11;;;27.13;19.01
80644;BME280;70010;60.224;24.712;2023-09-18T10:55:12;101978.50;;;27.69;18.57
80644;BME280;70010;60.224;24.712;2023-09-18T10:57:35;101973.75;;;29.01;17.52
80644;BME280;70010;60.224;24.712;2023-09-18T11:00:01;101973.45;;;26.35;18.86
80644;BME280;70010;60.224;24.712;2023-09-18T11:02:27;101969.46;;;29.21;17.11
80644;BME280;70010;60.224;24.712;2023-09-18T11:04:52;101970.88;;;28.38;18.70
80644;BME280;70010;60.224;24.712;2023-09-18T11:07:20;101970.10;;;28.19;18.23
80644;BME280;70010;60.224;24.712;2023-09-18T11:09:43;101966.50;;;32.60;15.35
80644;BME280;70010;60.224;24.712;2023-09-18T11:12:08;101970.31;;;30.29;16.04
80644;BME280;70010;60.224;24.712;2023-09-18T11:16:57;101965.42;;;27.91;16.99
80644;BME280;70010;60.224;24.712;2023-09-18T11:19:22;101965.91;;;26.54;17.97
80644;BME280;70010;60.224;24.712;2023-09-18T11:21:47;101959.66;;;29.95;16.82
80644;BME280;70010;60.224;24.712;2023-09-18T11:24:17;101960.99;;;24.16;20.10
80644;BME280;70010;60.224;24.712;2023-09-18T11:26:40;101959.38;;;27.47;19.27
80644;BME280;70010;60.224;24.712;2023-09-18T11:29:05;101961.79;;;24.81;19.56
80644;BME280;70010;60.224;24.712;2023-09-18T11:33:53;101958.20;;;29.10;16.70
80644;BME280;70010;60.224;24.712;2023-09-18T11:36:28;101949.92;;;34.94;13.20
80644;BME280;70010;60.224;24.712;2023-09-18T11:38:52;101950.83;;;30.91;15.16
80644;BME280;70010;60.224;24.712;2023-09-18T11:41:21;101942.88;;;35.69;12.37
80644;BME280;70010;60.224;24.712;2023-09-18T11:43:34;101942.92;;;36.45;12.24
80644;BME280;70010;60.224;24.712;2023-09-18T11:46:00;101945.14;;;30.60;15.34
80644;BME280;70010;60.224;24.712;2023-09-18T11:48:26;101942.37;;;29.11;16.90
80644;BME280;70010;60.224;24.712;2023-09-18T11:50:50;101940.60;;;27.67;17.41
80644;BME280;70010;60.224;24.712;2023-09-18T11:53:15;101940.07;;;30.08;16.03
80644;BME280;70010;60.224;24.712;2023-09-18T11:55:40;101944.89;;;24.89;19.36
80644;BME280;70010;60.224;24.712;2023-09-18T11:58:06;101945.66;;;23.74;21.65
80644;BME280;70010;60.224;24.712;2023-09-18T12:00:30;101946.40;;;24.93;21.15
80644;BME280;70010;60.224;24.712;2023-09-18T12:02:55;101937.38;;;26.95;19.38
80644;BME280;70010;60.224;24.712;2023-09-18T12:05:21;101940.29;;;27.48;19.44
80644;BME280;70010;60.224;24.712;2023-09-18T12:07:47;101938.36;;;28.63;18.03
80644;BME280;70010;60.224;24.712;2023-09-18T12:10:12;101947.21;;;25.21;20.64
80644;BME280;70010;60.224;24.712;2023-09-18T12:12:36;101938.24;;;33.83;15.22
80644;BME280;70010;60.224;24.712;2023-09-18T12:15:02;101940.79;;;31.66;15.85
80644;BME280;70010;60.224;24.712;2023-09-18T12:17:26;101933.88;;;27.31;18.88
80644;BME280;70010;60.224;24.712;2023-09-18T12:19:52;101933.71;;;28.35;17.86
80644;BME280;70010;60.224;24.712;2023-09-18T12:22:23;101932.31;;;29.81;16.83
80644;BME280;70010;60.224;24.712;2023-09-18T12:24:42;101936.41;;;25.36;19.85
80644;BME280;70010;60.224;24.712;2023-09-18T12:27:07;101926.25;;;24.02;21.00
80644;BME280;70010;60.224;24.712;2023-09-18T12:29:32;101928.94;;;20.80;24.47
80644;BME280;70010;60.224;24.712;2023-09-18T12:31:58;101928.10;;;24.41;22.52
80644;BME280;70010;60.224;24.712;2023-09-18T12:34:23;101927.98;;;26.40;20.67
80644;BME280;70010;60.224;24.712;2023-09-18T12:36:48;101930.64;;;21.54;24.97
80644;BME280;70010;60.224;24.712;2023-09-18T12:39:13;101921.11;;;28.90;19.62
80644;BME280;70010;60.224;24.712;2023-09-18T12:41:39;101914.46;;;35.04;14.61
80644;BME280;70010;60.224;24.712;2023-09-18T12:44:05;101922.00;;;24.13;21.78